Orchard Park, NY (14127)

2:43 AM EST on February 06, 2016 (GMT -0500)
Hawthorne Dr. | | Change Station
CLOSE
Current Station
Personal Weather Station
Location: Orchard Park, NY
Elevation: 787 ft
Nearby Weather Stations

Elev 787 ft 42.78 °N, 78.74 °W | Updated 2 seconds ago

Overcast
Overcast
30.0 °F
Feels Like 30 °F
N
0.0
Wind Variable Wind from NNW
Gusts 4.0 mph

Today
High -- | Low -- °F
--% Chance of Precip.
Yesterday
High -- | Low -- °F
Precip. -- in
Pressure 30.27 in
Visibility 10.0 miles
Clouds Overcast 7500 ft
Windchill 30 °F
Dew Point 22 °F
Humidity 73%
Rainfall 0.00 in
Snow Depth Not available.
7:24 AM 5:34 PM
Waning Crescent, 7% visible
METAR KBUF 060654Z 19007KT 10SM OVC075 M02/M08 A3024 RMK AO2 SLP250 T10171078
Pressure 30.27 in
Visibility 10.0 miles
Clouds Overcast 7500 ft
Windchill 30 °F
Dew Point 22 °F
Humidity 73%
Rainfall 0.00 in
Snow Depth Not available.
7:24 AM 5:34 PM
Waning Crescent, 7% visible
METAR KBUF 060654Z 19007KT 10SM OVC075 M02/M08 A3024 RMK AO2 SLP250 T10171078

10-Day Weather Forecast

Almanac

Astronomy

Feb. 06, 2016 Rise Set
Actual Time
Civil Twilight
Nautical Twilight
Astronomical Twilight
Moon
Length of Visible Light
Length of Day
Tomorrow will be .
, % of the Moon is Illuminated

Today's Extremes

State Highs State Lows

Community

WunderPhotos

Upload Photos

1,890,933 photos uploaded!

WunderBlog® & News

Nearby

Air Quality

  Air Quality AQ Index Pollutant
Not available.

Snow Depth

Station Depth Elevation

Earthquake Activity

City Distance Mag. Time & Date
Minimum magnitude displayed is 2.5.

Coastal Water Temperatures

Place Temperature

Stations

Nearby Weather Stations

Station Location Temp. Windchill Dew Point Humidity Wind Precip. Elev Updated Type
                   

Watches & Warnings

There are currently no watches in effect.